createdAt,value
2019-02-09T00:02:59.691Z,104.90
2019-02-09T00:08:07.157Z,106.37
2019-02-09T00:13:12.432Z,104.67
2019-02-09T00:18:17.680Z,105.30
2019-02-09T00:23:22.935Z,95.03
2019-02-09T00:28:28.226Z,102.47
2019-02-09T00:33:33.490Z,90.07
2019-02-09T00:38:38.753Z,96.60
2019-02-09T00:43:43.999Z,93.97
2019-02-09T00:48:49.218Z,94.42
2019-02-09T00:53:54.489Z,108.00
2019-02-09T00:58:59.752Z,94.07
2019-02-09T01:04:05.003Z,97.82
2019-02-09T01:09:12.942Z,102.75
2019-02-09T01:14:18.206Z,95.12
2019-02-09T01:19:23.465Z,109.05
2019-02-09T01:24:28.725Z,102.97
2019-02-09T01:29:34.030Z,97.45
2019-02-09T01:34:39.252Z,109.90
2019-02-09T01:39:44.517Z,93.78
2019-02-09T01:44:49.778Z,104.53
2019-02-09T01:49:55.111Z,96.20
2019-02-09T01:55:00.393Z,92.03
2019-02-09T02:00:14.488Z,100.65
2019-02-09T02:05:21.495Z,102.45
2019-02-09T02:10:34.587Z,91.47
2019-02-09T02:15:40.558Z,96.80
2019-02-09T02:20:45.886Z,84.60
2019-02-09T02:25:51.137Z,86.77
2019-02-09T02:30:56.383Z,74.40
2019-02-09T02:36:01.626Z,68.23
2019-02-09T02:41:06.868Z,75.03
2019-02-09T02:46:12.099Z,76.30
2019-02-09T02:51:17.604Z,73.57
2019-02-09T02:56:22.862Z,79.05
2019-02-09T03:01:28.874Z,76.07
2019-02-09T03:06:34.148Z,64.80
2019-02-09T03:11:39.410Z,72.50
2019-02-09T03:16:44.729Z,68.60
2019-02-09T03:21:49.966Z,69.20
2019-02-09T03:26:55.219Z,71.53
2019-02-09T03:32:00.526Z,71.40
2019-02-09T03:37:05.790Z,64.05
2019-02-09T03:42:11.083Z,71.17
2019-02-09T03:47:16.358Z,75.65
2019-02-09T03:52:21.619Z,68.45
2019-02-09T03:57:27.116Z,62.80
2019-02-09T04:02:32.421Z,61.53
2019-02-09T04:07:37.686Z,55.98
2019-02-09T04:12:42.996Z,56.60
2019-02-09T04:17:48.281Z,60.98
2019-02-09T04:22:53.507Z,65.03
2019-02-09T04:27:58.894Z,62.23
2019-02-09T04:33:04.353Z,58.75
2019-02-09T04:38:09.576Z,55.60
2019-02-09T04:43:14.824Z,60.87
2019-02-09T04:48:20.080Z,64.03
2019-02-09T04:53:25.668Z,54.18
2019-02-09T04:58:31.060Z,57.00
2019-02-09T05:03:36.400Z,62.70
2019-02-09T05:08:41.662Z,58.45
2019-02-09T05:13:48.089Z,66.37
2019-02-09T05:18:53.316Z,55.05
2019-02-09T05:23:58.644Z,57.08
2019-02-09T05:29:03.900Z,55.63
2019-02-09T05:34:09.218Z,54.80
2019-02-09T05:39:14.473Z,65.13
2019-02-09T05:44:19.704Z,66.33
2019-02-09T05:49:25.092Z,58.48
2019-02-09T05:54:30.523Z,58.23
2019-02-09T05:59:35.783Z,59.67
2019-02-09T06:04:41.043Z,65.75
2019-02-09T06:09:46.292Z,62.70
2019-02-09T06:14:51.554Z,61.53
2019-02-09T06:19:56.847Z,67.92
2019-02-09T06:25:02.094Z,61.43
2019-02-09T06:30:13.481Z,64.45
2019-02-09T06:35:18.744Z,59.10
2019-02-09T06:40:24.519Z,53.35
2019-02-09T06:45:29.865Z,51.48
2019-02-09T06:50:35.122Z,49.50
2019-02-09T06:55:40.387Z,59.48
2019-02-09T07:00:45.722Z,42.15
2019-02-09T07:05:50.981Z,43.78
2019-02-09T07:10:56.247Z,45.08
2019-02-09T07:16:01.512Z,55.78
2019-02-09T07:21:06.759Z,57.48
2019-02-09T07:26:12.016Z,48.35
2019-02-09T07:31:17.280Z,57.60
2019-02-09T07:36:22.537Z,53.33
2019-02-09T07:41:27.787Z,53.95
2019-02-09T07:46:33.156Z,51.73
2019-02-09T07:51:38.766Z,58.38
2019-02-09T07:56:44.031Z,65.83
2019-02-09T08:01:49.271Z,67.08
2019-02-09T08:06:54.537Z,63.08
2019-02-09T08:11:59.939Z,73.85
2019-02-09T08:17:05.255Z,72.15
2019-02-09T08:22:10.526Z,62.83
2019-02-09T08:27:23.296Z,69.10
2019-02-09T08:32:22.657Z,65.40
2019-02-09T08:37:28.067Z,60.20
2019-02-09T08:42:33.311Z,36.30
2019-02-09T08:47:38.560Z,45.90
2019-02-09T08:52:43.806Z,39.53
2019-02-09T08:57:49.220Z,50.35
2019-02-09T09:02:55.507Z,44.73
2019-02-09T09:08:01.015Z,51.88
2019-02-09T09:13:06.283Z,50.25
2019-02-09T09:18:11.562Z,31.70
2019-02-09T09:23:16.833Z,42.08
2019-02-09T09:28:22.103Z,58.78
2019-02-09T09:33:27.433Z,54.03
2019-02-09T09:38:32.688Z,47.23
2019-02-09T09:43:37.957Z,48.63
2019-02-09T09:48:43.228Z,39.78
2019-02-09T09:53:48.500Z,36.25
2019-02-09T09:58:53.808Z,40.30
2019-02-09T10:03:59.063Z,43.68
2019-02-09T10:09:06.664Z,37.98
2019-02-09T10:14:11.968Z,43.25
2019-02-09T10:19:17.209Z,44.90
2019-02-09T10:24:22.482Z,42.95
2019-02-09T10:29:27.755Z,45.83
2019-02-09T10:34:33.009Z,44.85
2019-02-09T10:39:38.273Z,35.95
2019-02-09T10:44:43.529Z,46.53
2019-02-09T10:49:48.806Z,48.15
2019-02-09T10:54:54.122Z,46.33
2019-02-09T10:59:59.481Z,37.00
2019-02-09T11:05:05.953Z,48.23
2019-02-09T11:10:22.214Z,44.98
2019-02-09T11:15:27.546Z,40.33
2019-02-09T11:20:32.811Z,50.80
2019-02-09T11:25:38.103Z,44.45
2019-02-09T11:30:43.508Z,47.17
2019-02-09T11:35:48.819Z,54.08
2019-02-09T11:40:54.079Z,51.70
2019-02-09T11:45:59.354Z,49.27
2019-02-09T11:51:04.634Z,50.43
2019-02-09T11:56:10.163Z,51.50
2019-02-09T12:01:15.611Z,50.90
2019-02-09T12:06:20.883Z,42.20
2019-02-09T12:11:26.158Z,46.08
2019-02-09T12:16:31.420Z,43.87
2019-02-09T12:21:36.690Z,44.93
2019-02-09T12:26:42.035Z,41.30
2019-02-09T12:31:47.417Z,40.80
2019-02-09T12:36:52.706Z,40.50
2019-02-09T12:41:57.975Z,33.65
2019-02-09T12:47:03.283Z,31.35
2019-02-09T12:52:08.592Z,29.87
2019-02-09T12:57:13.792Z,30.88
2019-02-09T13:02:19.116Z,31.25
2019-02-09T13:07:24.450Z,30.08
2019-02-09T13:12:30.655Z,29.52
2019-02-09T13:17:35.913Z,28.83
2019-02-09T13:22:41.186Z,30.32
2019-02-09T13:27:46.453Z,29.18
2019-02-09T13:32:51.762Z,26.97
2019-02-09T13:37:57.034Z,26.50
2019-02-09T13:43:02.287Z,30.43
2019-02-09T13:48:07.679Z,32.70
2019-02-09T13:53:13.228Z,27.25
2019-02-09T13:58:18.450Z,26.05
2019-02-09T14:03:23.731Z,25.68
2019-02-09T14:08:29.007Z,27.73
2019-02-09T14:13:34.277Z,26.35
2019-02-09T14:18:39.553Z,26.55
2019-02-09T14:23:44.815Z,27.17
2019-02-09T14:28:50.191Z,25.32
2019-02-09T14:33:55.508Z,26.60
2019-02-09T14:39:00.733Z,26.82
2019-02-09T14:44:06.098Z,30.50
2019-02-09T14:49:11.455Z,25.75
2019-02-09T14:54:16.726Z,23.42
2019-02-09T14:59:21.898Z,22.58
2019-02-09T15:04:27.255Z,22.77
2019-02-09T15:09:32.523Z,26.33
2019-02-09T15:14:37.858Z,25.55
2019-02-09T15:19:43.111Z,19.00
2019-02-09T15:24:48.378Z,26.50
2019-02-09T15:29:53.653Z,26.10
2019-02-09T15:34:58.906Z,32.98
2019-02-09T15:40:07.261Z,28.95
2019-02-09T15:45:15.214Z,30.50
2019-02-09T15:50:20.469Z,29.55
2019-02-09T15:55:25.696Z,33.48
2019-02-09T16:00:32.575Z,31.65
2019-02-09T16:05:37.867Z,34.38
2019-02-09T16:10:43.130Z,28.05
2019-02-09T16:15:48.406Z,39.30
2019-02-09T16:20:53.667Z,35.58
2019-02-09T16:25:59.013Z,39.48
2019-02-09T16:31:05.510Z,39.45
2019-02-09T16:36:10.775Z,36.17
2019-02-09T16:41:16.043Z,38.63
2019-02-09T16:46:21.323Z,44.93
2019-02-09T16:51:26.510Z,39.53
2019-02-09T16:56:31.751Z,40.67
2019-02-09T17:01:37.019Z,42.15
2019-02-09T17:06:42.484Z,44.40
2019-02-09T17:11:47.735Z,43.25
2019-02-09T17:16:52.997Z,40.73
2019-02-09T17:21:58.279Z,39.70
2019-02-09T17:27:03.546Z,41.13
2019-02-09T17:32:08.794Z,49.38
2019-02-09T17:37:14.070Z,54.67
2019-02-09T17:42:19.340Z,58.25
2019-02-09T17:47:24.615Z,53.02
2019-02-09T17:52:29.871Z,48.35
2019-02-09T17:57:35.128Z,55.80
2019-02-09T18:02:40.458Z,53.25
2019-02-09T18:07:45.694Z,59.38
2019-02-09T18:12:50.954Z,55.35
2019-02-09T18:17:56.143Z,54.70
2019-02-09T18:23:01.427Z,110.55
2019-02-09T18:28:07.841Z,53.33
2019-02-09T18:33:14.671Z,54.45
2019-02-09T18:38:20.036Z,60.43
2019-02-09T18:43:25.321Z,48.50
2019-02-09T18:48:30.594Z,53.48
2019-02-09T18:53:35.850Z,63.50
2019-02-09T18:58:41.124Z,48.55
2019-02-09T19:03:46.403Z,55.67
2019-02-09T19:08:52.805Z,53.30
2019-02-09T19:13:58.207Z,55.17
2019-02-09T19:19:03.541Z,57.83
2019-02-09T19:24:09.170Z,53.02
2019-02-09T19:29:14.436Z,49.77
2019-02-09T19:34:19.695Z,51.48
2019-02-09T19:39:24.938Z,43.50
2019-02-09T19:44:30.218Z,46.65
2019-02-09T19:49:35.477Z,47.62
2019-02-09T19:54:40.736Z,50.73
2019-02-09T19:59:46.078Z,50.00
2019-02-09T20:04:51.348Z,46.63
2019-02-09T20:09:57.659Z,47.80
2019-02-09T20:15:02.987Z,48.45
2019-02-09T20:20:16.867Z,40.52
2019-02-09T20:25:28.526Z,49.25
2019-02-09T20:30:38.032Z,45.85
2019-02-09T20:35:43.306Z,43.23
2019-02-09T20:40:58.272Z,47.83
2019-02-09T20:46:03.578Z,43.73
2019-02-09T20:51:08.856Z,45.70
2019-02-09T20:56:14.112Z,42.90
2019-02-09T21:01:19.393Z,43.58
2019-02-09T21:06:24.722Z,44.75
2019-02-09T21:11:29.999Z,42.05
2019-02-09T21:16:35.285Z,43.75
2019-02-09T21:21:41.243Z,42.80
2019-02-09T21:26:46.498Z,46.70
2019-02-09T21:31:51.789Z,42.98
2019-02-09T21:36:57.018Z,43.87
2019-02-09T21:42:02.269Z,45.33
2019-02-09T21:47:07.917Z,44.95
2019-02-09T21:52:13.179Z,41.75
2019-02-09T21:57:18.418Z,40.52
2019-02-09T22:02:23.654Z,45.03
2019-02-09T22:07:28.937Z,41.95
2019-02-09T22:12:34.258Z,39.23
2019-02-09T22:17:39.527Z,39.85
2019-02-09T22:22:44.750Z,41.28
2019-02-09T22:27:50.078Z,45.15
2019-02-09T22:32:56.749Z,40.85
2019-02-09T22:38:02.122Z,46.08
2019-02-09T22:43:07.639Z,41.42
2019-02-09T22:48:12.900Z,44.83
2019-02-09T22:53:18.167Z,42.17
2019-02-09T22:58:23.430Z,44.27
2019-02-09T23:03:48.434Z,41.73
2019-02-09T23:08:56.132Z,44.83
2019-02-09T23:14:01.390Z,43.92
2019-02-09T23:19:06.650Z,45.70
2019-02-09T23:24:12.164Z,39.50
2019-02-09T23:29:17.685Z,41.30
2019-02-09T23:34:23.354Z,43.63
2019-02-09T23:39:28.580Z,46.77
2019-02-09T23:44:33.842Z,44.23
2019-02-09T23:49:39.080Z,40.83
2019-02-09T23:54:44.334Z,37.67
2019-02-09T23:59:49.605Z,39.20
